Terminal Aerodrome Forecast
Issued by NWS Duluth, MN

Home | Current Version | Previous Version | Text Only | Print | Product List | Glossary On
Versions: 1 2 3 4 5 6 7 8 9 10 11 12 13 14 15 16 17 18 19 20 21
000
FTUS43 KDLH 210500
TAFINL
TAF
KINL 210533Z 2106/2206 33011KT P6SM -RA SCT010 OVC060
     FM210900 33009KT P6SM BKN015
     FM211700 33007KT P6SM SCT030
     FM220200 30002KT P6SM SKC=

USA.gov is the U.S. government's official web portal to all federal, state and local government web resources and services.